createdAt,value
2022-11-23T00:00:09.474Z,1.65
2022-11-23T00:02:36.224Z,1.77
2022-11-23T00:05:02.957Z,3.00
2022-11-23T00:07:29.681Z,1.75
2022-11-23T00:09:56.308Z,1.90
2022-11-23T00:12:22.926Z,2.05
2022-11-23T00:14:51.780Z,3.53
2022-11-23T00:17:18.455Z,2.67
2022-11-23T00:19:45.021Z,3.00
2022-11-23T00:22:11.594Z,2.33
2022-11-23T00:24:38.372Z,2.53
2022-11-23T00:27:05.006Z,2.40
2022-11-23T00:29:32.070Z,2.30
2022-11-23T00:31:58.915Z,2.55
2022-11-23T00:34:25.487Z,2.22
2022-11-23T00:36:52.081Z,2.00
2022-11-23T00:39:18.739Z,2.15
2022-11-23T00:41:45.322Z,2.58
2022-11-23T00:44:11.969Z,1.88
2022-11-23T00:46:38.572Z,2.17
2022-11-23T00:49:06.620Z,2.85
2022-11-23T00:51:35.737Z,2.20
2022-11-23T00:54:05.172Z,2.13
2022-11-23T00:56:33.849Z,2.28
2022-11-23T00:59:01.733Z,2.25
2022-11-23T01:01:33.675Z,2.20
2022-11-23T01:04:02.353Z,2.67
2022-11-23T01:06:32.287Z,2.45
2022-11-23T01:09:05.330Z,2.13
2022-11-23T01:11:32.680Z,2.45
2022-11-23T01:14:00.236Z,2.17
2022-11-23T01:16:30.175Z,1.92
2022-11-23T01:19:07.601Z,2.30
2022-11-23T01:21:35.580Z,2.28
2022-11-23T01:24:07.508Z,2.35
2022-11-23T01:26:37.336Z,2.50
2022-11-23T01:29:04.098Z,2.30
2022-11-23T01:31:30.768Z,3.13
2022-11-23T01:34:00.053Z,1.98
2022-11-23T01:36:32.443Z,2.35
2022-11-23T01:39:01.571Z,1.70
2022-11-23T01:41:35.227Z,1.70
2022-11-23T01:44:20.887Z,1.90
2022-11-23T01:46:52.798Z,1.80
2022-11-23T01:49:19.626Z,1.80
2022-11-23T01:51:50.486Z,2.65
2022-11-23T01:54:29.803Z,1.87
2022-11-23T01:57:18.189Z,1.90
2022-11-23T01:59:46.219Z,2.22
2022-11-23T02:02:14.333Z,1.67
2022-11-23T02:04:45.695Z,1.98
2022-11-23T02:07:16.088Z,1.90
2022-11-23T02:09:45.596Z,2.10
2022-11-23T02:12:14.275Z,2.47
2022-11-23T02:14:43.190Z,2.10
2022-11-23T02:17:10.811Z,2.22
2022-11-23T02:19:47.556Z,2.45
2022-11-23T02:22:51.786Z,3.00
2022-11-23T02:25:44.733Z,1.60
2022-11-23T02:28:13.975Z,1.92
2022-11-23T02:30:41.332Z,1.80
2022-11-23T02:33:08.035Z,2.10
2022-11-23T02:35:35.109Z,2.30
2022-11-23T02:38:04.549Z,2.10
2022-11-23T02:40:34.450Z,2.42
2022-11-23T02:43:02.196Z,2.80
2022-11-23T02:45:41.485Z,2.17
2022-11-23T02:48:08.243Z,2.72
2022-11-23T02:50:38.107Z,2.20
2022-11-23T02:53:09.125Z,2.22
2022-11-23T02:55:36.146Z,2.90
2022-11-23T02:58:06.890Z,1.85
2022-11-23T03:00:34.230Z,2.63
2022-11-23T03:03:01.817Z,2.28
2022-11-23T03:05:28.917Z,3.90
2022-11-23T03:07:55.812Z,2.30
2022-11-23T03:10:22.552Z,2.47
2022-11-23T03:12:55.308Z,2.55
2022-11-23T03:15:23.645Z,2.78
2022-11-23T03:17:50.578Z,2.47
2022-11-23T03:20:17.441Z,2.63
2022-11-23T03:22:46.727Z,2.40
2022-11-23T03:25:15.147Z,2.67
2022-11-23T03:27:44.590Z,1.90
2022-11-23T03:30:11.679Z,1.83
2022-11-23T03:32:38.293Z,2.15
2022-11-23T03:35:06.212Z,2.85
2022-11-23T03:37:34.841Z,2.55
2022-11-23T03:40:02.147Z,3.15
2022-11-23T03:43:07.076Z,2.42
2022-11-23T03:45:33.718Z,2.40
2022-11-23T03:48:00.394Z,3.05
2022-11-23T03:50:29.605Z,3.20
2022-11-23T03:52:56.808Z,2.80
2022-11-23T03:55:23.444Z,2.38
2022-11-23T03:57:54.304Z,2.03
2022-11-23T04:00:21.429Z,2.83
2022-11-23T04:02:49.242Z,3.05
2022-11-23T04:05:44.777Z,3.70
2022-11-23T04:08:40.379Z,2.50
2022-11-23T04:11:11.447Z,2.55
2022-11-23T04:13:41.372Z,2.75
2022-11-23T04:16:09.016Z,2.67
2022-11-23T04:18:37.003Z,2.40
2022-11-23T04:21:04.339Z,2.25
2022-11-23T04:23:31.029Z,2.80
2022-11-23T04:25:57.678Z,2.55
2022-11-23T04:28:24.675Z,5.00
2022-11-23T04:30:52.604Z,4.18
2022-11-23T04:33:19.761Z,2.90
2022-11-23T04:35:46.451Z,2.83
2022-11-23T04:38:14.134Z,2.92
2022-11-23T04:40:42.231Z,2.50
2022-11-23T04:43:09.529Z,2.78
2022-11-23T04:45:40.719Z,2.97
2022-11-23T04:48:13.560Z,2.85
2022-11-23T04:50:46.481Z,3.10
2022-11-23T04:53:18.947Z,3.00
2022-11-23T04:55:47.571Z,2.50
2022-11-23T04:58:16.942Z,3.00
2022-11-23T05:00:50.307Z,2.47
2022-11-23T05:03:18.163Z,2.42
2022-11-23T05:05:44.879Z,2.42
2022-11-23T05:08:11.599Z,3.88
2022-11-23T05:10:48.814Z,2.58
2022-11-23T05:13:15.578Z,2.03
2022-11-23T05:15:43.503Z,4.90
2022-11-23T05:18:13.018Z,2.45
2022-11-23T05:20:40.167Z,3.20
2022-11-23T05:23:07.993Z,3.03
2022-11-23T05:25:38.387Z,2.50
2022-11-23T05:28:37.920Z,2.40
2022-11-23T05:30:54.514Z,2.63
2022-11-23T05:33:21.114Z,2.83
2022-11-23T05:35:48.161Z,2.45
2022-11-23T05:38:17.811Z,2.80
2022-11-23T05:40:45.938Z,3.00
2022-11-23T05:43:13.886Z,2.00
2022-11-23T05:45:42.697Z,2.50
2022-11-23T05:48:10.470Z,2.45
2022-11-23T05:50:50.510Z,2.83
2022-11-23T05:53:35.914Z,2.42
2022-11-23T05:56:12.521Z,2.40
2022-11-23T05:58:56.311Z,2.88
2022-11-23T06:01:23.259Z,2.80
2022-11-23T06:03:51.885Z,2.75
2022-11-23T06:06:18.774Z,3.72
2022-11-23T06:08:48.999Z,2.67
2022-11-23T06:11:16.917Z,2.90
2022-11-23T06:13:47.589Z,2.60
2022-11-23T06:16:15.505Z,2.60
2022-11-23T06:18:53.873Z,2.40
2022-11-23T06:21:20.558Z,3.92
2022-11-23T06:23:48.114Z,2.65
2022-11-23T06:26:15.380Z,2.90
2022-11-23T06:28:41.994Z,2.58
2022-11-23T06:31:10.695Z,4.85
2022-11-23T06:33:38.619Z,4.10
2022-11-23T06:36:05.744Z,5.00
2022-11-23T06:38:38.413Z,5.53
2022-11-23T06:41:13.503Z,2.85
2022-11-23T06:43:40.298Z,3.28
2022-11-23T06:46:07.756Z,2.90
2022-11-23T06:48:38.871Z,3.35
2022-11-23T06:51:06.884Z,2.95
2022-11-23T06:53:35.712Z,3.35
2022-11-23T06:56:05.587Z,2.15
2022-11-23T06:58:32.950Z,2.85
2022-11-23T07:01:03.795Z,2.35
2022-11-23T07:03:35.905Z,2.97
2022-11-23T07:06:10.391Z,2.58
2022-11-23T07:08:43.337Z,2.50
2022-11-23T07:11:23.571Z,3.10
2022-11-23T07:13:50.233Z,2.60
2022-11-23T07:16:16.954Z,2.65
2022-11-23T07:18:43.686Z,2.55
2022-11-23T07:21:10.438Z,2.47
2022-11-23T07:23:40.607Z,2.83
2022-11-23T07:26:09.154Z,2.95
2022-11-23T07:28:35.944Z,2.60
2022-11-23T07:31:02.671Z,3.03
2022-11-23T07:33:29.360Z,2.75
2022-11-23T07:35:56.078Z,2.63
2022-11-23T07:38:22.909Z,2.72
2022-11-23T07:40:51.286Z,3.03
2022-11-23T07:43:38.050Z,2.47
2022-11-23T07:46:04.920Z,2.63
2022-11-23T07:48:36.114Z,2.95
2022-11-23T07:53:30.008Z,2.63
2022-11-23T07:55:58.945Z,2.50
2022-11-23T07:58:25.636Z,2.25
2022-11-23T08:00:53.066Z,2.42
2022-11-23T08:03:27.915Z,2.63
2022-11-23T08:05:55.191Z,3.10
2022-11-23T08:08:21.867Z,1.95
2022-11-23T08:10:52.934Z,2.20
2022-11-23T08:13:21.457Z,2.03
2022-11-23T08:15:53.882Z,2.60
2022-11-23T08:18:21.795Z,2.33
2022-11-23T08:20:48.593Z,2.33
2022-11-23T08:23:15.264Z,2.17
2022-11-23T08:25:42.080Z,2.60
2022-11-23T08:28:08.695Z,1.88
2022-11-23T08:30:35.814Z,2.20
2022-11-23T08:33:06.793Z,2.35
2022-11-23T08:35:37.412Z,2.38
2022-11-23T08:38:05.310Z,2.33
2022-11-23T08:40:32.580Z,2.38
2022-11-23T08:42:59.268Z,2.30
2022-11-23T08:45:26.171Z,2.22
2022-11-23T08:47:53.016Z,3.22
2022-11-23T08:50:20.437Z,2.00
2022-11-23T08:52:47.076Z,2.55
2022-11-23T08:55:13.935Z,1.60
2022-11-23T08:57:40.533Z,2.03
2022-11-23T09:00:08.748Z,2.55
2022-11-23T09:02:35.342Z,3.20
2022-11-23T09:05:01.963Z,2.35
2022-11-23T09:07:28.606Z,2.63
2022-11-23T09:09:55.269Z,2.40
2022-11-23T09:12:21.899Z,2.35
2022-11-23T09:14:48.571Z,2.38
2022-11-23T09:17:15.181Z,2.35
2022-11-23T09:19:41.855Z,2.08
2022-11-23T09:22:08.442Z,2.13
2022-11-23T09:24:35.451Z,2.20
2022-11-23T09:27:02.348Z,2.30
2022-11-23T09:29:28.980Z,2.30
2022-11-23T09:31:55.608Z,2.05
2022-11-23T09:34:22.906Z,2.15
2022-11-23T09:36:49.599Z,2.80
2022-11-23T09:39:16.271Z,2.47
2022-11-23T09:42:14.080Z,2.55
2022-11-23T09:45:11.008Z,2.75
2022-11-23T09:47:40.377Z,2.60
2022-11-23T09:50:06.915Z,3.92
2022-11-23T09:52:37.148Z,2.00
2022-11-23T09:55:16.779Z,2.50
2022-11-23T09:57:46.195Z,2.10
2022-11-23T10:00:21.559Z,1.80
2022-11-23T10:02:48.360Z,2.28
2022-11-23T10:05:19.987Z,1.95
2022-11-23T10:10:43.533Z,2.00
2022-11-23T10:13:25.362Z,1.98
2022-11-23T10:18:44.937Z,2.25
2022-11-23T10:21:45.967Z,2.63
2022-11-23T10:24:21.529Z,2.15
2022-11-23T10:26:50.129Z,2.10
2022-11-23T10:29:29.442Z,1.90
2022-11-23T10:31:57.742Z,1.85
2022-11-23T10:34:41.383Z,2.50
2022-11-23T10:37:13.179Z,1.60
2022-11-23T10:39:39.875Z,1.73
2022-11-23T10:42:35.210Z,1.92
2022-11-23T10:45:02.032Z,1.80
2022-11-23T10:47:42.534Z,1.95
2022-11-23T10:50:33.339Z,1.88
2022-11-23T10:53:12.340Z,2.08
2022-11-23T10:55:55.045Z,1.73
2022-11-23T10:58:27.908Z,2.00
2022-11-23T11:01:03.213Z,2.05
2022-11-23T11:03:34.696Z,1.50
2022-11-23T11:06:10.833Z,1.63
2022-11-23T11:09:03.226Z,2.15
2022-11-23T11:11:37.241Z,1.85
2022-11-23T11:14:05.313Z,2.10
2022-11-23T11:16:35.958Z,1.42
2022-11-23T11:19:35.984Z,1.65
2022-11-23T11:22:24.273Z,1.50
2022-11-23T11:24:51.064Z,2.65
2022-11-23T11:27:21.964Z,2.60
2022-11-23T11:29:51.506Z,1.93
2022-11-23T11:32:25.600Z,1.70
2022-11-23T11:35:02.805Z,1.88
2022-11-23T11:37:40.026Z,2.28
2022-11-23T11:40:42.313Z,3.03
2022-11-23T11:43:17.721Z,2.80
2022-11-23T11:46:13.036Z,2.10
2022-11-23T11:48:46.170Z,2.55
2022-11-23T11:51:22.712Z,1.80
2022-11-23T11:53:57.506Z,2.00
2022-11-23T11:56:44.532Z,1.48
2022-11-23T11:59:28.892Z,1.10
2022-11-23T12:02:03.516Z,1.00
2022-11-23T12:04:36.314Z,1.50
2022-11-23T12:07:14.232Z,1.50
2022-11-23T12:09:45.055Z,1.58
2022-11-23T12:12:23.805Z,1.40
2022-11-23T12:14:53.418Z,2.03
2022-11-23T12:17:41.572Z,1.25
2022-11-23T12:20:36.465Z,1.95
2022-11-23T12:23:42.131Z,1.55
2022-11-23T12:26:11.603Z,1.50
2022-11-23T12:29:06.930Z,1.80
2022-11-23T12:31:43.350Z,1.27
2022-11-23T12:34:37.852Z,1.30
2022-11-23T12:37:04.633Z,1.27
2022-11-23T12:39:34.245Z,1.40
2022-11-23T12:42:23.906Z,1.17
2022-11-23T12:45:06.273Z,1.48
2022-11-23T12:47:52.222Z,1.27
2022-11-23T12:50:41.667Z,1.02
2022-11-23T12:53:27.444Z,1.95
2022-11-23T12:56:19.965Z,1.00
2022-11-23T12:58:48.964Z,1.50
2022-11-23T13:01:21.163Z,1.17
2022-11-23T13:04:09.867Z,1.33
2022-11-23T13:10:11.990Z,1.20
2022-11-23T13:12:57.834Z,1.20
2022-11-23T13:15:43.276Z,1.50
2022-11-23T13:18:39.496Z,1.73
2022-11-23T13:21:19.547Z,1.50
2022-11-23T13:23:46.256Z,1.38
2022-11-23T13:26:14.888Z,1.70
2022-11-23T13:28:42.212Z,1.42
2022-11-23T13:31:21.247Z,1.88
2022-11-23T13:33:54.866Z,2.08
2022-11-23T13:36:56.376Z,1.90
2022-11-23T13:39:45.215Z,1.42
2022-11-23T13:42:12.789Z,2.50
2022-11-23T13:44:39.815Z,1.58
2022-11-23T13:47:17.796Z,1.40
2022-11-23T13:49:50.081Z,1.15
2022-11-23T13:52:23.239Z,1.17
2022-11-23T13:55:09.791Z,1.63
2022-11-23T13:57:42.278Z,1.10
2022-11-23T14:00:46.981Z,2.08
2022-11-23T14:03:44.753Z,1.70
2022-11-23T14:06:26.001Z,1.60
2022-11-23T14:09:10.618Z,1.63
2022-11-23T14:11:57.677Z,1.38
2022-11-23T14:14:30.658Z,1.42
2022-11-23T14:17:21.983Z,1.50
2022-11-23T14:20:40.240Z,2.30
2022-11-23T14:23:21.790Z,3.83
2022-11-23T14:26:02.369Z,4.25
2022-11-23T14:28:39.835Z,1.92
2022-11-23T14:31:34.543Z,3.60
2022-11-23T14:34:20.791Z,4.55
2022-11-23T14:36:56.452Z,2.35
2022-11-23T14:39:29.067Z,1.75
2022-11-23T14:42:00.469Z,1.65
2022-11-23T14:44:31.055Z,2.08
2022-11-23T14:47:01.753Z,2.60
2022-11-23T14:49:28.536Z,1.25
2022-11-23T14:51:55.661Z,3.08
2022-11-23T14:54:22.880Z,1.80
2022-11-23T14:56:51.795Z,1.67
2022-11-23T14:59:25.693Z,1.60
2022-11-23T15:02:21.328Z,1.73
2022-11-23T15:05:08.399Z,1.77
2022-11-23T15:07:48.790Z,1.85
2022-11-23T15:10:40.203Z,1.83
2022-11-23T15:13:22.047Z,2.60
2022-11-23T15:18:35.210Z,2.10
2022-11-23T15:21:10.907Z,2.30
2022-11-23T15:23:57.886Z,2.55
2022-11-23T15:29:37.617Z,2.78
2022-11-23T15:32:33.813Z,2.30
2022-11-23T15:35:07.813Z,2.42
2022-11-23T15:37:43.772Z,2.42
2022-11-23T15:40:15.562Z,3.22
2022-11-23T15:42:43.964Z,4.05
2022-11-23T15:45:41.364Z,4.70
2022-11-23T15:48:11.377Z,2.60
2022-11-23T15:51:05.437Z,3.17
2022-11-23T15:53:52.371Z,5.13
2022-11-23T15:56:31.463Z,4.28
2022-11-23T15:59:05.320Z,4.15
2022-11-23T16:01:32.066Z,4.85
2022-11-23T16:04:04.719Z,4.25
2022-11-23T16:06:40.426Z,3.88
2022-11-23T16:09:52.771Z,3.92
2022-11-23T16:12:31.852Z,5.70
2022-11-23T16:15:18.263Z,5.68
2022-11-23T16:17:45.427Z,7.40
2022-11-23T16:20:14.983Z,6.03
2022-11-23T16:22:49.176Z,4.93
2022-11-23T16:25:28.555Z,4.40
2022-11-23T16:28:01.220Z,4.28
2022-11-23T16:30:44.783Z,3.35
2022-11-23T16:33:19.442Z,2.97
2022-11-23T16:35:47.291Z,2.97
2022-11-23T16:38:14.130Z,3.45
2022-11-23T16:40:42.652Z,6.88
2022-11-23T16:43:10.968Z,4.63
2022-11-23T16:45:43.276Z,4.35
2022-11-23T16:48:42.307Z,4.53
2022-11-23T16:51:14.386Z,3.47
2022-11-23T16:54:11.989Z,3.30
2022-11-23T16:56:30.856Z,3.50
2022-11-23T16:58:57.541Z,3.38
2022-11-23T17:01:26.720Z,3.13
2022-11-23T17:03:53.878Z,4.50
2022-11-23T17:06:24.125Z,4.45
2022-11-23T17:08:58.490Z,3.58
2022-11-23T17:11:30.693Z,3.42
2022-11-23T17:13:58.198Z,4.93
2022-11-23T17:16:26.913Z,4.22
2022-11-23T17:18:53.895Z,3.42
2022-11-23T17:21:20.825Z,2.80
2022-11-23T17:23:47.678Z,3.92
2022-11-23T17:26:29.575Z,4.90
2022-11-23T17:31:23.673Z,3.95
2022-11-23T17:33:50.462Z,3.42
2022-11-23T17:36:17.219Z,4.65
2022-11-23T17:38:47.018Z,4.50
2022-11-23T17:41:14.514Z,3.80
2022-11-23T17:43:41.232Z,5.65
2022-11-23T17:46:17.435Z,3.53
2022-11-23T17:48:44.811Z,3.53
2022-11-23T17:51:13.059Z,3.63
2022-11-23T17:53:40.232Z,3.70
2022-11-23T17:56:14.994Z,3.70
2022-11-23T17:58:41.610Z,3.50
2022-11-23T18:01:15.459Z,3.53
2022-11-23T18:03:45.212Z,3.67
2022-11-23T18:06:17.994Z,3.08
2022-11-23T18:08:46.183Z,3.33
2022-11-23T18:11:13.166Z,3.40
2022-11-23T18:13:40.563Z,3.20
2022-11-23T18:16:07.686Z,3.47
2022-11-23T18:18:35.232Z,3.55
2022-11-23T18:21:02.459Z,3.30
2022-11-23T18:23:29.242Z,3.35
2022-11-23T18:26:14.034Z,2.90
2022-11-23T18:28:40.761Z,3.20
2022-11-23T18:31:07.842Z,3.05
2022-11-23T18:33:34.665Z,3.50
2022-11-23T18:36:05.411Z,4.50
2022-11-23T18:38:33.052Z,3.72
2022-11-23T18:40:59.876Z,3.00
2022-11-23T18:43:26.604Z,3.55
2022-11-23T18:45:53.510Z,3.58
2022-11-23T18:48:20.278Z,3.60
2022-11-23T18:50:47.001Z,3.15
2022-11-23T18:53:13.678Z,3.05
2022-11-23T18:55:40.285Z,2.70
2022-11-23T18:58:07.214Z,2.55
2022-11-23T19:00:33.925Z,2.88
2022-11-23T19:03:02.143Z,2.88
2022-11-23T19:05:33.305Z,2.90
2022-11-23T19:08:05.414Z,3.30
2022-11-23T19:10:37.640Z,2.97
2022-11-23T19:13:05.986Z,3.83
2022-11-23T19:15:32.974Z,3.40
2022-11-23T19:18:00.279Z,3.30
2022-11-23T19:20:28.448Z,3.22
2022-11-23T19:22:55.823Z,3.65
2022-11-23T19:25:22.576Z,3.22
2022-11-23T19:27:51.101Z,3.47
2022-11-23T19:30:18.094Z,3.60
2022-11-23T19:32:44.924Z,4.25
2022-11-23T19:35:11.760Z,3.67
2022-11-23T19:37:38.863Z,3.45
2022-11-23T19:40:06.215Z,3.70
2022-11-23T19:42:35.604Z,3.72
2022-11-23T19:45:03.481Z,3.33
2022-11-23T19:47:31.406Z,4.20
2022-11-23T19:49:58.981Z,4.30
2022-11-23T19:52:47.954Z,3.75
2022-11-23T19:55:14.485Z,3.92
2022-11-23T19:57:41.192Z,5.07
2022-11-23T20:00:09.298Z,5.47
2022-11-23T20:02:38.743Z,4.90
2022-11-23T20:05:06.602Z,4.78
2022-11-23T20:07:33.334Z,4.57
2022-11-23T20:10:00.037Z,4.38
2022-11-23T20:12:26.677Z,5.07
2022-11-23T20:14:53.328Z,5.38
2022-11-23T20:17:19.985Z,4.43
2022-11-23T20:19:46.649Z,4.07
2022-11-23T20:22:13.255Z,4.10
2022-11-23T20:24:39.953Z,4.65
2022-11-23T20:27:06.673Z,4.45
2022-11-23T20:29:33.658Z,4.55
2022-11-23T20:32:01.287Z,5.10
2022-11-23T20:34:28.497Z,4.65
2022-11-23T20:36:55.157Z,4.55
2022-11-23T20:39:22.073Z,5.00
2022-11-23T20:41:49.644Z,4.57
2022-11-23T20:44:16.662Z,4.53
2022-11-23T20:49:30.700Z,3.95
2022-11-23T20:51:58.135Z,4.68
2022-11-23T20:54:24.807Z,5.10
2022-11-23T20:56:51.493Z,4.50
2022-11-23T20:59:19.643Z,4.53
2022-11-23T21:01:46.354Z,4.60
2022-11-23T21:04:13.229Z,4.82
2022-11-23T21:06:40.385Z,4.95
2022-11-23T21:09:09.016Z,5.30
2022-11-23T21:11:54.802Z,5.45
2022-11-23T21:14:24.519Z,4.75
2022-11-23T21:16:54.857Z,5.15
2022-11-23T21:19:26.461Z,4.78
2022-11-23T21:21:53.917Z,4.65
2022-11-23T21:24:21.310Z,4.50
2022-11-23T21:26:48.325Z,4.85
2022-11-23T21:29:18.304Z,7.65
2022-11-23T21:31:46.696Z,5.00
2022-11-23T21:34:20.969Z,4.88
2022-11-23T21:36:48.429Z,4.95
2022-11-23T21:39:16.116Z,4.47
2022-11-23T21:41:43.570Z,5.30
2022-11-23T21:44:10.931Z,5.43
2022-11-23T21:46:39.639Z,4.60
2022-11-23T21:49:07.403Z,4.88
2022-11-23T21:51:35.220Z,4.85
2022-11-23T21:54:05.196Z,4.32
2022-11-23T21:56:32.270Z,4.85
2022-11-23T21:58:59.248Z,4.40
2022-11-23T22:01:29.016Z,5.75
2022-11-23T22:03:58.164Z,4.70
2022-11-23T22:06:24.881Z,6.47
2022-11-23T22:08:53.706Z,4.30
2022-11-23T22:11:25.572Z,4.20
2022-11-23T22:13:57.545Z,4.68
2022-11-23T22:16:29.665Z,4.60
2022-11-23T22:18:56.979Z,4.63
2022-11-23T22:21:26.003Z,3.75
2022-11-23T22:23:52.644Z,4.43
2022-11-23T22:26:20.445Z,4.00
2022-11-23T22:28:49.279Z,4.60
2022-11-23T22:31:19.634Z,4.20
2022-11-23T22:33:46.885Z,4.55
2022-11-23T22:36:19.150Z,3.90
2022-11-23T22:38:46.554Z,3.40
2022-11-23T22:41:17.550Z,4.85
2022-11-23T22:43:44.487Z,3.83
2022-11-23T22:46:13.349Z,3.75
2022-11-23T22:48:41.320Z,4.40
2022-11-23T22:51:10.200Z,4.15
2022-11-23T22:53:44.318Z,3.83
2022-11-23T22:56:19.345Z,4.13
2022-11-23T22:58:47.279Z,4.13
2022-11-23T23:01:24.260Z,4.47
2022-11-23T23:03:59.080Z,5.22
2022-11-23T23:06:28.264Z,4.50
2022-11-23T23:08:59.831Z,3.75
2022-11-23T23:11:28.978Z,3.65
2022-11-23T23:13:56.327Z,4.32
2022-11-23T23:16:23.188Z,4.70
2022-11-23T23:18:51.267Z,4.45
2022-11-23T23:21:20.769Z,3.80
2022-11-23T23:23:52.293Z,3.95
2022-11-23T23:26:21.402Z,3.42
2022-11-23T23:28:48.769Z,4.05
2022-11-23T23:31:17.207Z,4.20
2022-11-23T23:33:45.132Z,4.57
2022-11-23T23:36:17.136Z,3.42
2022-11-23T23:38:44.219Z,4.30
2022-11-23T23:41:12.288Z,4.75
2022-11-23T23:43:39.033Z,5.13
2022-11-23T23:46:08.230Z,3.60
2022-11-23T23:48:36.656Z,4.32
2022-11-23T23:51:20.840Z,4.03
2022-11-23T23:53:48.085Z,3.63
2022-11-23T23:56:17.080Z,3.40
2022-11-23T23:58:44.219Z,3.75
